Time;durP1;ratioP1;P1;durP2;ratioP2;P2;SDS_P1;SDS_P2;PMS_P1;PMS_P2;Temp;Humidity;BMP_temperature;BMP_pressure;BME280_temperature;BME280_humidity;BME280_pressure;Samples;Min_cycle;Max_cycle;Signal;HPM_P1;HPM_P2
2022/08/02 00:01:28;;;;;;;8.55;2.75;;;;;;;16.72;95.93;101996.50;7396345;19;20015;-79
2022/08/02 00:03:59;;;;;;;7.65;2.63;;;;;;;16.74;95.50;101996.50;7398473;19;20033;-80
2022/08/02 00:06:30;;;;;;;5.88;2.40;;;;;;;16.74;95.49;101991.22;7399824;19;20019;-79
2022/08/02 00:09:01;;;;;;;7.28;2.22;;;;;;;16.73;94.78;101984.13;7401760;19;20010;-77
2022/08/02 00:11:34;;;;;;;4.40;2.47;;;;;;;16.73;94.69;101973.53;7398752;19;20019;-79
2022/08/02 00:14:07;;;;;;;8.93;2.70;;;;;;;16.73;94.53;101970.91;7397113;19;20010;-79
2022/08/02 00:16:42;;;;;;;8.70;4.10;;;;;;;16.73;94.94;101969.13;7394695;19;20041;-80
2022/08/02 00:19:13;;;;;;;7.97;2.80;;;;;;;16.73;95.79;101973.53;7394169;19;20007;-79
2022/08/02 00:21:43;;;;;;;8.15;2.75;;;;;;;16.71;95.66;101968.25;7396136;19;20255;-79
2022/08/02 00:24:16;;;;;;;8.23;3.55;;;;;;;16.71;95.37;101962.06;7404985;19;20010;-79
2022/08/02 00:27:02;;;;;;;6.43;2.40;;;;;;;16.66;95.83;101956.72;7391596;19;20021;-73
2022/08/02 00:29:39;;;;;;;8.52;3.15;;;;;;;16.65;95.96;101971.72;7376907;19;20105;-74
2022/08/02 00:32:24;;;;;;;6.50;3.17;;;;;;;16.66;96.17;101973.50;7376647;19;20037;-74
2022/08/02 00:34:58;;;;;;;7.40;2.70;;;;;;;16.65;95.78;101966.44;7374868;19;20200;-74
2022/08/02 00:37:31;;;;;;;5.47;2.58;;;;;;;16.60;96.48;101968.16;7378748;19;20090;-73
2022/08/02 00:40:02;;;;;;;7.35;2.42;;;;;;;16.62;96.56;101966.41;7375681;19;20007;-74
2022/08/02 00:42:34;;;;;;;5.90;2.60;;;;;;;16.59;95.50;101961.09;7378721;19;20379;-74
2022/08/02 00:45:08;;;;;;;3.92;2.20;;;;;;;16.57;95.16;101962.84;7395367;19;20558;-79
2022/08/02 00:47:41;;;;;;;7.07;2.42;;;;;;;16.58;95.70;101961.09;7394599;19;20011;-79
2022/08/02 00:50:12;;;;;;;6.82;2.53;;;;;;;16.57;93.78;101960.22;7381992;19;20037;-76
2022/08/02 00:52:42;;;;;;;7.28;2.22;;;;;;;16.66;91.74;101962.91;7363543;19;20042;-74
2022/08/02 00:55:13;;;;;;;5.03;2.30;;;;;;;16.61;90.25;101948.75;7386250;19;20011;-78
2022/08/02 00:57:50;;;;;;;3.97;2.13;;;;;;;16.61;90.01;101948.75;7400608;19;20098;-78
2022/08/02 01:00:21;;;;;;;5.75;2.35;;;;;;;16.58;90.17;101947.84;7395605;19;20003;-80
2022/08/02 01:03:04;;;;;;;7.25;2.60;;;;;;;16.57;89.21;101941.66;7401489;19;20010;-80
2022/08/02 01:05:35;;;;;;;5.13;2.17;;;;;;;16.53;88.96;101947.81;7402201;19;20906;-79
2022/08/02 01:08:28;;;;;;;6.03;2.40;;;;;;;16.50;90.32;101945.16;7401242;19;20027;-78
2022/08/02 01:11:01;;;;;;;5.80;2.45;;;;;;;16.44;89.81;101939.81;7396672;19;20018;-81
2022/08/02 01:13:31;;;;;;;5.78;2.47;;;;;;;16.48;89.49;101946.91;7395258;19;20011;-79
2022/08/02 01:16:08;;;;;;;3.90;2.20;;;;;;;16.44;89.29;101939.81;7398583;19;20006;-77
2022/08/02 01:18:51;;;;;;;5.68;2.72;;;;;;;16.44;89.10;101933.63;7399603;19;20510;-78
2022/08/02 01:21:39;;;;;;;4.70;2.67;;;;;;;16.38;89.30;101934.47;7400267;19;20011;-78
2022/08/02 01:24:24;;;;;;;8.75;2.35;;;;;;;16.35;89.67;101934.47;7397778;19;20038;-79
2022/08/02 01:27:07;;;;;;;5.10;2.22;;;;;;;16.32;89.69;101931.78;7399256;19;20018;-78
2022/08/02 01:29:47;;;;;;;5.95;2.63;;;;;;;16.29;90.11;101937.06;7382974;19;20010;-73
2022/08/02 01:32:26;;;;;;;4.90;2.10;;;;;;;16.24;90.36;101937.03;7378031;19;20009;-73
2022/08/02 01:35:03;;;;;;;4.40;2.33;;;;;;;16.23;90.95;101947.59;7374891;19;20086;-74
2022/08/02 01:37:39;;;;;;;5.47;2.60;;;;;;;16.21;90.77;101938.75;7374375;19;20003;-74
2022/08/02 01:40:12;;;;;;;9.98;2.80;;;;;;;16.16;91.36;101932.53;7375762;19;20019;-74
2022/08/02 01:42:48;;;;;;;4.50;2.30;;;;;;;16.12;92.03;101936.03;7375220;19;20006;-74
2022/08/02 01:45:28;;;;;;;8.88;2.78;;;;;;;16.08;92.89;101936.88;7375164;19;20022;-74
2022/08/02 01:48:02;;;;;;;5.45;2.15;;;;;;;16.02;92.97;101946.56;7373491;19;20039;-74
2022/08/02 01:50:35;;;;;;;8.00;2.45;;;;;;;15.99;94.05;101943.00;7375249;19;20010;-75
2022/08/02 01:53:12;;;;;;;6.03;2.45;;;;;;;15.95;95.31;101939.44;7374557;19;20018;-74
2022/08/02 01:55:46;;;;;;;4.93;2.38;;;;;;;15.89;94.51;101934.09;7383636;19;20007;-74
2022/08/02 01:58:31;;;;;;;6.07;2.30;;;;;;;15.87;95.56;101935.84;7384818;19;20019;-75
2022/08/02 02:01:05;;;;;;;6.05;2.45;;;;;;;15.83;95.45;101930.50;7379386;19;20039;-75
2022/08/02 02:03:40;;;;;;;4.82;2.47;;;;;;;15.80;96.08;101936.66;7382332;19;20014;-75
2022/08/02 02:06:13;;;;;;;5.30;2.60;;;;;;;15.78;96.84;101935.75;7379981;19;20013;-74
2022/08/02 02:08:46;;;;;;;7.40;2.80;;;;;;;15.77;97.44;101935.75;7382196;19;20376;-75
2022/08/02 02:11:17;;;;;;;6.22;2.60;;;;;;;15.74;97.04;101933.06;7382400;19;20014;-75
2022/08/02 02:14:13;;;;;;;5.65;2.45;;;;;;;15.72;97.47;101924.22;7381395;19;21414;-74
2022/08/02 02:16:52;;;;;;;6.05;2.60;;;;;;;15.69;97.75;101923.31;7380402;19;20006;-74
2022/08/02 02:19:25;;;;;;;5.82;2.65;;;;;;;15.68;98.10;101907.44;7383209;19;20019;-74
2022/08/02 02:21:58;;;;;;;6.38;2.90;;;;;;;15.69;98.07;101920.69;7383810;19;20011;-75
2022/08/02 02:24:30;;;;;;;5.93;2.50;;;;;;;15.68;99.13;101918.03;7383972;19;20066;-75
2022/08/02 02:27:03;;;;;;;3.45;2.35;;;;;;;15.65;98.59;101928.56;7379711;19;20010;-75
2022/08/02 02:29:36;;;;;;;3.40;2.17;;;;;;;15.64;98.09;101926.78;7382207;19;20035;-75
2022/08/02 02:32:09;;;;;;;5.25;2.35;;;;;;;15.62;98.77;101925.91;7381030;19;20026;-74
2022/08/02 02:34:40;;;;;;;;;;;;;;;15.60;99.47;101925.88;7382509;19;20011;-72
2022/08/02 02:37:25;;;;;;;5.20;2.30;;;;;;;15.59;98.53;101920.63;7378830;19;20483;-74
2022/08/02 02:42:45;;;;;;;5.75;2.72;;;;;;;15.58;98.60;101909.16;7381380;19;20098;-75
2022/08/02 02:45:21;;;;;;;7.30;2.60;;;;;;;15.58;98.60;101906.50;7382582;19;20049;-74
2022/08/02 02:47:56;;;;;;;5.75;2.53;;;;;;;15.57;98.05;101904.72;7382649;19;20635;-74
2022/08/02 02:50:33;;;;;;;2.88;2.38;;;;;;;15.54;98.54;101902.03;7380381;19;20540;-76
2022/08/02 02:53:05;;;;;;;4.60;2.80;;;;;;;15.50;98.49;101902.88;7376706;19;20061;-73
2022/08/02 02:55:38;;;;;;;8.23;2.65;;;;;;;15.49;98.89;101903.72;7379829;19;20027;-75
2022/08/02 02:58:08;;;;;;;4.20;2.13;;;;;;;15.50;97.17;101902.88;7380417;19;20007;-74
2022/08/02 03:03:54;;;;;;;6.38;2.22;;;;;;;15.49;98.32;101903.72;7381363;19;20014;-75
2022/08/02 03:06:27;;;;;;;4.22;2.15;;;;;;;15.50;97.52;101902.88;7381073;19;20006;-75
2022/08/02 03:08:58;;;;;;;6.05;2.38;;;;;;;15.51;97.47;101901.09;7381659;19;20030;-75
2022/08/02 03:11:32;;;;;;;7.75;2.50;;;;;;;15.51;98.10;101903.75;7380504;19;20041;-74
2022/08/02 03:14:07;;;;;;;5.05;2.70;;;;;;;15.49;96.43;101901.09;7380243;19;20478;-75
2022/08/02 03:16:45;;;;;;;6.35;2.60;;;;;;;15.47;96.53;101886.97;7380991;19;20011;-75
2022/08/02 03:19:18;;;;;;;5.25;2.20;;;;;;;15.46;96.46;101890.47;7384289;19;20014;-76
2022/08/02 03:21:49;;;;;;;;;;;;;;;15.46;96.38;101890.47;7387219;19;20467;-75
2022/08/02 03:24:30;;;;;;;4.78;2.33;;;;;;;15.47;96.23;101880.78;7386746;19;19911;-74
2022/08/02 03:27:03;;;;;;;4.13;2.38;;;;;;;15.47;96.06;101880.78;7384435;19;20017;-75
2022/08/02 03:29:36;;;;;;;3.95;2.10;;;;;;;15.44;95.99;101871.06;7383826;19;20451;-76
2022/08/02 03:32:08;;;;;;;6.97;2.55;;;;;;;15.43;96.48;101865.78;7379940;19;20483;-76
2022/08/02 03:34:43;;;;;;;3.63;2.28;;;;;;;15.43;96.39;101864.03;7387521;19;20014;-76
2022/08/02 03:37:17;;;;;;;5.37;2.50;;;;;;;15.45;95.27;101877.25;7388963;19;20018;-77
2022/08/02 03:39:48;;;;;;;4.53;2.20;;;;;;;15.42;93.91;101877.22;7387410;19;20014;-74
2022/08/02 03:42:23;;;;;;;6.55;2.50;;;;;;;15.40;95.83;101884.25;7385003;19;20150;-76
2022/08/02 03:44:59;;;;;;;8.68;2.30;;;;;;;15.37;94.34;101875.41;7385987;19;20522;-76
2022/08/02 03:47:37;;;;;;;6.45;2.53;;;;;;;15.39;93.86;101875.44;7382610;19;20429;-74
2022/08/02 03:50:13;;;;;;;7.03;2.45;;;;;;;15.38;93.98;101866.63;7387997;19;20011;-76
2022/08/02 03:52:47;;;;;;;4.40;2.30;;;;;;;15.36;93.68;101863.06;7382339;19;20836;-75
2022/08/02 03:55:17;;;;;;;8.00;2.80;;;;;;;15.35;93.12;101855.13;7385148;19;20007;-75
2022/08/02 03:57:50;;;;;;;6.90;2.42;;;;;;;15.36;92.33;101851.63;7382883;19;20034;-75
2022/08/02 04:00:26;;;;;;;4.33;2.20;;;;;;;15.42;91.93;101848.16;7382034;19;20017;-76
2022/08/02 04:03:01;;;;;;;5.18;2.38;;;;;;;15.42;92.06;101849.03;7388746;19;20401;-76
2022/08/02 04:05:33;;;;;;;;;;;;;;;15.42;91.72;101848.16;7389540;19;20003;-76
2022/08/02 04:08:27;;;;;;;4.10;2.20;;;;;;;15.42;91.27;101856.06;7404517;19;20411;-81
2022/08/02 04:13:49;;;;;;;6.60;2.53;;;;;;;15.41;91.36;101855.19;7387120;19;20364;-76
2022/08/02 04:16:27;;;;;;;6.78;2.72;;;;;;;15.39;92.35;101849.00;7384552;19;20028;-76
2022/08/02 04:19:02;;;;;;;3.97;2.33;;;;;;;15.36;92.68;101852.50;7383936;19;20013;-75
2022/08/02 04:21:41;;;;;;;6.40;2.47;;;;;;;15.38;93.12;101855.16;7406354;19;20020;-80
2022/08/02 04:24:36;;;;;;;7.80;2.67;;;;;;;15.36;93.61;101856.91;7401664;19;20043;-76
2022/08/02 04:27:09;;;;;;;4.85;2.33;;;;;;;15.33;94.98;101852.47;7395200;19;20020;-75
2022/08/02 04:30:01;;;;;;;3.58;2.10;;;;;;;15.31;94.83;101846.28;7388630;19;20088;-75
2022/08/02 04:32:33;;;;;;;7.43;2.47;;;;;;;15.30;94.74;101849.78;7402723;19;20014;-80
2022/08/02 04:35:04;;;;;;;5.93;2.80;;;;;;;15.29;94.92;101850.66;7397749;19;20014;-75
2022/08/02 04:37:56;;;;;;;9.63;2.97;;;;;;;15.29;96.29;101855.94;7387430;19;20385;-75
2022/08/02 04:40:39;;;;;;;7.50;3.28;;;;;;;15.32;96.56;101852.47;7387154;19;20010;-82
2022/08/02 04:43:09;;;;;;;8.20;2.90;;;;;;;15.36;96.68;101847.22;7401114;19;20034;-81
2022/08/02 04:45:42;;;;;;;6.93;2.38;;;;;;;15.40;96.37;101852.53;7392171;19;20015;-77
2022/08/02 04:48:12;;;;;;;6.20;2.83;;;;;;;15.43;97.03;101850.81;7395217;19;20006;-77
2022/08/02 04:50:44;;;;;;;7.05;2.92;;;;;;;15.43;96.30;101857.84;7389573;19;20010;-77
2022/08/02 04:53:17;;;;;;;6.50;2.92;;;;;;;15.47;97.73;101851.72;7384267;19;20021;-77
2022/08/02 04:55:47;;;;;;;7.13;3.03;;;;;;;15.48;97.51;101853.50;7396247;19;20039;-76
2022/08/02 04:58:20;;;;;;;4.32;3.00;;;;;;;15.50;97.64;101846.47;7401408;19;20110;-80
2022/08/02 05:01:09;;;;;;;6.30;2.63;;;;;;;15.57;97.87;101837.75;7392711;19;20011;-76
2022/08/02 05:03:40;;;;;;;9.02;3.00;;;;;;;15.60;97.66;101822.75;7399135;19;20007;-80
2022/08/02 05:06:12;;;;;;;6.72;3.25;;;;;;;15.67;97.62;101823.69;7405957;19;20056;-80
2022/08/02 05:08:51;;;;;;;9.88;3.15;;;;;;;15.73;97.46;101829.03;7406352;19;20061;-80
2022/08/02 05:11:26;;;;;;;7.00;3.40;;;;;;;15.76;97.64;101831.69;7400294;19;20031;-80
2022/08/02 05:14:07;;;;;;;9.27;3.53;;;;;;;15.82;98.26;101834.38;7397854;19;20497;-76
2022/08/02 05:16:37;;;;;;;8.13;3.80;;;;;;;15.88;98.39;101837.09;7391305;19;20021;-75
2022/08/02 05:19:10;;;;;;;7.85;3.05;;;;;;;15.98;98.30;101838.91;7391106;19;20064;-80
2022/08/02 05:21:41;;;;;;;10.02;3.90;;;;;;;16.14;97.42;101849.59;7403894;19;20010;-78
2022/08/02 05:24:14;;;;;;;8.88;3.42;;;;;;;16.33;97.41;101848.84;7392059;19;20010;-76
2022/08/02 05:26:49;;;;;;;7.82;3.63;;;;;;;16.44;96.49;101859.50;7396030;19;20280;-81
2022/08/02 05:29:22;;;;;;;10.75;4.30;;;;;;;16.64;96.86;101853.41;7397758;19;20011;-76
2022/08/02 05:31:55;;;;;;;8.52;3.90;;;;;;;16.80;96.36;101848.19;7397482;19;20011;-76
2022/08/02 05:34:25;;;;;;;8.95;4.07;;;;;;;16.94;95.97;101841.16;7403633;19;20065;-78
2022/08/02 05:37:00;;;;;;;6.43;3.60;;;;;;;17.07;95.82;101834.13;7386866;19;20014;-78
2022/08/02 05:39:41;;;;;;;9.10;4.20;;;;;;;17.24;94.94;101845.66;7388117;19;20014;-81
2022/08/02 05:42:34;;;;;;;13.52;4.80;;;;;;;17.30;95.38;101838.59;7409003;19;20014;-75
2022/08/02 05:45:07;;;;;;;11.68;4.30;;;;;;;17.39;95.52;101835.09;7403398;19;20046;-81
2022/08/02 05:47:38;;;;;;;11.00;4.28;;;;;;;17.56;94.74;101832.44;7392932;19;20003;-83
2022/08/02 05:50:10;;;;;;;10.35;4.70;;;;;;;17.78;95.01;101839.53;7402583;19;20379;-80
2022/08/02 05:52:52;;;;;;;13.88;5.00;;;;;;;18.01;94.29;101828.00;7402503;19;20010;-81
2022/08/02 05:55:30;;;;;;;10.43;4.95;;;;;;;18.20;94.62;101833.28;7409058;19;20382;-78
2022/08/02 05:59:12;;;;;;;;;;;;;;;;;;;;;
2022/08/02 06:01:59;;;;;;;11.70;5.05;;;;;;;18.76;94.52;101826.00;7370485;19;20490;-79
2022/08/02 06:04:47;;;;;;;12.45;5.95;;;;;;;18.83;94.62;101825.06;7377052;19;20006;-78
2022/08/02 06:07:20;;;;;;;17.45;6.80;;;;;;;19.01;94.94;101824.97;7393479;19;20046;-77
2022/08/02 06:09:51;;;;;;;14.88;6.63;;;;;;;19.24;94.61;101822.16;7374569;19;20613;-74
2022/08/02 06:12:33;;;;;;;18.60;8.57;;;;;;;19.29;95.53;101820.38;7373852;19;20363;-76
2022/08/02 06:15:06;;;;;;;19.48;7.72;;;;;;;19.68;94.75;101823.63;7378072;19;20014;-76
2022/08/02 06:17:37;;;;;;;16.73;9.20;;;;;;;19.78;96.68;101819.97;7377409;19;20007;-76
2022/08/02 06:20:16;;;;;;;18.15;8.98;;;;;;;19.87;97.82;101820.75;7368785;19;20010;-76
2022/08/02 06:22:47;;;;;;;23.67;10.52;;;;;;;19.98;99.68;101818.00;7376419;19;20014;-77
2022/08/02 06:25:18;;;;;;;23.08;10.50;;;;;;;20.07;99.76;101814.38;7374498;19;20314;-76
2022/08/02 06:28:12;;;;;;;23.23;10.90;;;;;;;20.29;99.70;101812.34;7369450;19;20014;-74
2022/08/02 06:30:41;;;;;;;;;;;;;;;20.41;100.00;101815.78;7375818;19;20018;-73
2022/08/02 06:33:12;;;;;;;23.55;11.30;;;;;;;20.73;99.40;101815.38;7365777;19;19915;-74
2022/08/02 06:35:48;;;;;;;24.10;11.65;;;;;;;20.58;99.58;101817.38;7369032;19;20011;-72
2022/08/02 06:38:23;;;;;;;23.08;11.40;;;;;;;20.60;100.00;101815.56;7368559;19;20334;-74
2022/08/02 06:41:00;;;;;;;24.25;12.63;;;;;;;20.57;100.00;101832.47;7374364;19;20038;-74
2022/08/02 06:43:44;;;;;;;26.55;12.43;;;;;;;20.72;100.00;101828.72;7373502;19;20729;-74
2022/08/02 06:46:14;;;;;;;21.65;11.40;;;;;;;20.58;100.00;101828.03;7378331;19;20017;-74
2022/08/02 06:49:05;;;;;;;22.20;11.38;;;;;;;20.46;100.00;101821.06;7372735;19;20010;-75
2022/08/02 06:51:36;;;;;;;22.33;11.25;;;;;;;20.52;100.00;101827.19;7376498;19;20465;-71
2022/08/02 06:54:07;;;;;;;24.90;10.88;;;;;;;20.76;100.00;101828.69;7372891;19;20732;-73
2022/08/02 06:56:39;;;;;;;22.00;11.80;;;;;;;21.07;100.00;101830.88;7373593;19;20347;-74
2022/08/02 06:59:11;;;;;;;24.75;12.65;;;;;;;21.23;100.00;101821.78;7376407;19;20026;-74
2022/08/02 07:01:41;;;;;;;21.93;11.63;;;;;;;21.52;99.88;101818.66;7372011;19;20018;-74
2022/08/02 07:04:12;;;;;;;23.52;12.15;;;;;;;21.79;99.91;101815.53;7375983;19;20478;-73
2022/08/02 07:06:46;;;;;;;24.98;13.00;;;;;;;22.16;97.17;101820.19;7377998;19;20227;-72
2022/08/02 07:09:17;;;;;;;23.83;12.68;;;;;;;22.30;97.36;101811.91;7381487;19;20035;-72
2022/08/02 07:11:50;;;;;;;24.70;13.18;;;;;;;22.22;96.71;101805.84;7375452;19;20127;-74
2022/08/02 07:14:25;;;;;;;30.73;14.43;;;;;;;22.68;96.43;101798.63;7373392;19;20350;-73
2022/08/02 07:16:56;;;;;;;34.60;15.50;;;;;;;22.62;95.67;101811.25;7372257;19;20015;-73
2022/08/02 07:19:26;;;;;;;30.23;14.25;;;;;;;22.98;94.90;101810.47;7375297;19;20003;-74
2022/08/02 07:22:07;;;;;;;28.67;13.68;;;;;;;23.44;93.40;101801.34;7380608;19;20041;-75
2022/08/02 07:24:38;;;;;;;32.92;16.25;;;;;;;23.48;92.87;101800.34;7377439;19;20019;-76
2022/08/02 07:27:08;;;;;;;33.50;17.15;;;;;;;23.26;93.49;101802.66;7379753;19;20340;-73
2022/08/02 07:29:47;;;;;;;36.55;17.80;;;;;;;23.31;94.43;101792.72;7375040;19;20507;-75
2022/08/02 07:32:19;;;;;;;38.72;19.42;;;;;;;23.05;94.49;101795.16;7381919;19;20010;-74
2022/08/02 07:34:51;;;;;;;34.08;19.38;;;;;;;23.22;94.36;101784.03;7372573;19;20574;-75
2022/08/02 07:37:27;;;;;;;36.15;19.92;;;;;;;23.13;94.96;101788.69;7377944;19;20021;-74
2022/08/02 07:40:18;;;;;;;31.83;18.70;;;;;;;23.29;94.64;101788.31;7375548;19;20052;-74
2022/08/02 07:42:56;;;;;;;30.73;16.60;;;;;;;23.58;92.97;101793.00;7373608;19;20562;-75
2022/08/02 07:45:36;;;;;;;30.52;17.50;;;;;;;23.84;93.88;101781.59;7384405;19;20011;-76
2022/08/02 07:48:28;;;;;;;26.25;15.25;;;;;;;24.04;91.00;101774.75;7390814;19;20328;-75
2022/08/02 07:51:00;;;;;;;22.77;13.60;;;;;;;23.91;89.62;101772.47;7382875;19;20026;-77
2022/08/02 07:53:30;;;;;;;25.40;13.63;;;;;;;24.34;89.31;101777.50;7382977;19;20018;-77
2022/08/02 07:56:22;;;;;;;21.27;11.75;;;;;;;24.49;88.22;101787.78;7389074;19;20044;-75
2022/08/02 07:58:55;;;;;;;20.95;12.00;;;;;;;24.32;86.32;101780.25;7393891;19;20027;-76
2022/08/02 08:01:29;;;;;;;23.25;11.00;;;;;;;24.43;85.02;101780.81;7401717;19;20019;-79
2022/08/02 08:03:59;;;;;;;18.10;10.35;;;;;;;24.62;84.71;101783.81;7402830;19;20036;-78
2022/08/02 08:06:31;;;;;;;20.02;9.80;;;;;;;24.25;85.35;101783.97;7399168;19;20055;-76
2022/08/02 08:09:01;;;;;;;17.48;8.90;;;;;;;24.77;83.59;101778.00;7394907;19;20006;-77
2022/08/02 08:11:31;;;;;;;15.18;8.27;;;;;;;24.66;83.88;101780.13;7393258;19;20025;-79
2022/08/02 08:14:02;;;;;;;15.32;8.77;;;;;;;24.61;84.31;101781.19;7392107;19;20402;-76
2022/08/02 08:16:35;;;;;;;16.85;8.52;;;;;;;24.50;82.93;101791.34;7391643;19;20062;-73
2022/08/02 08:19:07;;;;;;;15.15;7.43;;;;;;;24.44;84.03;101777.19;7371084;19;20078;-73
2022/08/02 08:21:43;;;;;;;16.55;8.18;;;;;;;24.51;82.23;101779.69;7367300;19;21201;-74
2022/08/02 08:24:14;;;;;;;15.68;7.60;;;;;;;24.64;82.54;101770.38;7370215;19;20011;-77
2022/08/02 08:26:47;;;;;;;13.48;8.10;;;;;;;24.72;81.47;101768.34;7373821;19;20039;-75
2022/08/02 08:29:20;;;;;;;13.63;7.70;;;;;;;25.29;81.13;101767.41;7372739;19;20020;-73
2022/08/02 08:31:56;;;;;;;15.07;8.38;;;;;;;25.23;78.88;101767.59;7370275;19;20003;-74
2022/08/02 08:34:34;;;;;;;16.73;7.95;;;;;;;25.38;78.43;101764.41;7369232;19;20010;-73
2022/08/02 08:37:05;;;;;;;14.93;8.27;;;;;;;25.59;76.60;101773.53;7380809;19;20315;-78
2022/08/02 08:39:35;;;;;;;16.17;8.98;;;;;;;25.69;76.40;101770.53;7385457;19;20035;-77
2022/08/02 08:42:26;;;;;;;14.93;7.30;;;;;;;26.11;74.19;101777.97;7404002;19;20015;-80
2022/08/02 08:45:00;;;;;;;15.52;8.65;;;;;;;25.78;76.03;101773.81;7397623;19;20015;-76
2022/08/02 08:47:39;;;;;;;18.73;9.25;;;;;;;24.92;78.18;101783.81;7388213;19;20364;-77
2022/08/02 08:50:12;;;;;;;15.05;8.25;;;;;;;25.14;77.87;101781.31;7388455;19;20026;-78
2022/08/02 08:52:55;;;;;;;18.23;8.80;;;;;;;24.97;78.20;101784.53;7387268;19;20006;-77
2022/08/02 08:55:27;;;;;;;17.42;9.73;;;;;;;25.05;76.47;101778.00;7381825;19;20477;-78
2022/08/02 08:58:00;;;;;;;17.40;8.50;;;;;;;25.15;76.76;101775.91;7392985;19;20011;-77
2022/08/02 09:00:34;;;;;;;12.15;7.05;;;;;;;25.30;72.88;101782.59;7397213;19;20018;-78
2022/08/02 09:03:08;;;;;;;12.32;5.88;;;;;;;26.02;73.40;101780.97;7390945;19;23170;-78
2022/08/02 09:05:40;;;;;;;15.07;6.88;;;;;;;25.65;72.20;101784.13;7388854;19;20010;-77
2022/08/02 09:08:11;;;;;;;12.43;6.70;;;;;;;25.80;71.49;101786.28;7394403;19;20015;-78
2022/08/02 09:10:48;;;;;;;11.82;6.78;;;;;;;26.13;71.65;101786.84;7393934;19;20031;-77
2022/08/02 09:13:28;;;;;;;12.00;6.15;;;;;;;25.60;67.84;101791.41;7397413;19;20031;-78
2022/08/02 09:16:14;;;;;;;12.63;6.30;;;;;;;25.59;68.53;101790.53;7396994;19;20007;-78
2022/08/02 09:18:50;;;;;;;12.05;6.03;;;;;;;25.46;69.15;101791.88;7392481;19;20038;-79
2022/08/02 09:21:22;;;;;;;10.50;5.65;;;;;;;25.60;69.31;101786.94;7395911;19;20010;-78
2022/08/02 09:23:56;;;;;;;12.07;5.85;;;;;;;25.52;67.02;101796.19;7395009;19;20051;-79
2022/08/02 09:26:28;;;;;;;13.27;6.63;;;;;;;25.32;66.65;101796.84;7394201;19;20011;-77
2022/08/02 09:29:04;;;;;;;10.40;5.60;;;;;;;25.48;67.66;101791.84;7399305;19;20010;-81
2022/08/02 09:31:35;;;;;;;14.20;5.82;;;;;;;25.52;66.57;101793.50;7393583;19;20014;-79
2022/08/02 09:34:21;;;;;;;11.80;5.72;;;;;;;25.35;67.37;101791.38;7394018;19;19999;-80
2022/08/02 09:36:53;;;;;;;10.10;5.10;;;;;;;25.24;66.08;101789.03;7382010;19;20470;-76
2022/08/02 09:39:26;;;;;;;13.73;5.68;;;;;;;25.83;65.54;101793.34;7375004;19;20014;-75
2022/08/02 09:42:13;;;;;;;13.05;5.18;;;;;;;25.53;65.07;101793.44;7372982;19;20021;-77
2022/08/02 09:44:56;;;;;;;11.13;5.47;;;;;;;25.55;65.21;101791.56;7393436;19;20038;-78
2022/08/02 09:47:34;;;;;;;9.98;4.90;;;;;;;25.81;65.26;101790.72;7391409;19;20014;-77
2022/08/02 09:50:11;;;;;;;10.23;5.40;;;;;;;25.54;65.35;101802.38;7391620;19;20142;-77
2022/08/02 09:52:45;;;;;;;12.60;5.68;;;;;;;25.76;64.47;101805.25;7388749;19;20443;-78
2022/08/02 09:55:16;;;;;;;9.48;5.38;;;;;;;25.39;64.46;101803.75;7386752;19;20003;-77
2022/08/02 09:57:47;;;;;;;11.32;5.50;;;;;;;25.87;63.92;101813.81;7385999;19;20011;-78
2022/08/02 10:00:21;;;;;;;;;;;;;;;26.81;65.08;101807.63;7387609;19;20014;-79
2022/08/02 10:03:13;;;;;;;8.43;4.65;;;;;;;27.13;62.80;101809.03;7401067;19;19911;-80
2022/08/02 10:05:57;;;;;;;13.25;5.72;;;;;;;26.85;59.78;101808.38;7398188;19;20017;-79
2022/08/02 10:08:34;;;;;;;12.63;5.07;;;;;;;27.39;60.75;101805.28;7405031;19;20630;-79
2022/08/02 10:11:04;;;;;;;12.85;5.88;;;;;;;26.93;59.22;101809.81;7411281;19;20093;-80
2022/08/02 10:13:38;;;;;;;10.07;5.40;;;;;;;26.58;59.21;101802.25;7405016;19;20074;-80
2022/08/02 10:16:09;;;;;;;9.65;5.32;;;;;;;26.61;60.97;101792.25;7404178;19;20109;-79
2022/08/02 10:18:40;;;;;;;9.32;5.00;;;;;;;27.07;60.10;101798.50;7406541;19;20395;-81
2022/08/02 10:21:17;;;;;;;10.80;5.93;;;;;;;26.68;61.29;101806.34;7413073;19;20233;-80
2022/08/02 10:23:51;;;;;;;10.48;5.45;;;;;;;27.13;60.92;101792.00;7416458;19;20006;-79
2022/08/02 10:26:22;;;;;;;12.48;5.65;;;;;;;27.28;59.23;101794.06;7414003;19;20014;-78
2022/08/02 10:28:56;;;;;;;13.30;6.25;;;;;;;27.16;60.64;101797.25;7403067;19;20014;-79
2022/08/02 10:31:35;;;;;;;10.75;5.57;;;;;;;27.33;60.17;101801.03;7399020;19;20017;-74
2022/08/02 10:34:24;;;;;;;10.30;5.10;;;;;;;27.86;59.00;101780.84;7382943;19;20007;-73
2022/08/02 10:37:33;;;;;;;10.77;5.82;;;;;;;27.33;58.93;101794.75;7375594;19;20017;-72
2022/08/02 10:40:21;;;;;;;12.18;6.22;;;;;;;27.45;59.63;101799.63;7381057;19;20034;-72
2022/08/02 10:43:18;;;;;;;13.43;6.68;;;;;;;27.51;59.36;101779.63;7374679;19;20066;-73
2022/08/02 10:46:39;;;;;;;11.90;6.10;;;;;;;27.60;59.55;101784.66;7376490;19;20023;-74
2022/08/02 10:49:14;;;;;;;10.40;5.70;;;;;;;27.44;59.66;101778.16;7374248;19;20332;-74
2022/08/02 10:52:18;;;;;;;10.52;6.70;;;;;;;27.53;58.54;101781.31;7371928;19;20397;-72
2022/08/02 10:55:15;;;;;;;12.07;6.07;;;;;;;27.84;59.74;101780.03;7374904;19;20006;-72
2022/08/02 10:58:34;;;;;;;;;;;;;;;;;;;;;
2022/08/02 11:01:46;;;;;;;11.30;6.05;;;;;;;27.88;57.48;101781.66;7235446;19;1005131;-74
2022/08/02 11:04:52;;;;;;;12.90;6.43;;;;;;;28.00;56.95;101790.09;7375524;19;20014;-74
2022/08/02 11:10:57;;;;;;;14.57;7.18;;;;;;;27.62;55.26;101772.88;7374548;19;20021;-74
2022/08/02 11:14:05;;;;;;;10.35;6.15;;;;;;;27.78;57.09;101769.53;7375929;19;20044;-73
2022/08/02 11:17:27;;;;;;;10.68;5.50;;;;;;;27.81;56.93;101769.38;7377103;19;20017;-74
2022/08/02 11:20:22;;;;;;;9.98;6.13;;;;;;;27.38;58.03;101771.19;7376933;19;20026;-74
2022/08/02 11:23:21;;;;;;;15.02;6.82;;;;;;;27.51;58.12;101777.81;7374528;19;20042;-74
2022/08/02 11:26:43;;;;;;;12.23;6.38;;;;;;;27.47;58.92;101776.19;7375877;19;20557;-73
2022/08/02 11:29:16;;;;;;;13.13;7.22;;;;;;;27.11;61.17;101778.59;7379541;19;20062;-74
2022/08/02 11:31:50;;;;;;;13.18;7.13;;;;;;;27.31;60.41;101775.09;7378487;19;20027;-74
2022/08/02 11:34:27;;;;;;;15.98;8.07;;;;;;;27.73;58.67;101776.94;7382659;19;20010;-79
2022/08/02 11:37:07;;;;;;;14.90;8.07;;;;;;;27.78;59.55;101774.91;7405616;19;20007;-79
2022/08/02 11:39:42;;;;;;;13.15;7.85;;;;;;;28.02;58.78;101773.84;7410791;19;20031;-80
2022/08/02 11:42:33;;;;;;;13.25;7.15;;;;;;;27.95;59.16;101772.34;7352430;19;140134;-79
2022/08/02 11:45:03;;;;;;;14.45;6.95;;;;;;;28.57;57.86;101774.00;7415564;19;20010;-80
2022/08/02 11:47:34;;;;;;;15.02;8.00;;;;;;;28.10;55.82;101773.47;7385190;19;20011;-78
2022/08/02 11:50:14;;;;;;;14.55;5.95;;;;;;;28.52;54.25;101776.03;7405590;19;20011;-81
2022/08/02 11:52:44;;;;;;;10.48;5.80;;;;;;;28.11;54.25;101768.00;7396716;19;20046;-79
2022/08/02 11:55:18;;;;;;;12.57;5.15;;;;;;;28.24;53.81;101785.41;7402871;19;20034;-82
2022/08/02 11:57:50;;;;;;;11.60;6.05;;;;;;;28.17;52.67;101778.50;7405725;19;20002;-82
2022/08/02 12:00:37;;;;;;;11.32;5.43;;;;;;;28.21;52.04;101765.75;7413161;19;20058;-81
2022/08/02 12:03:09;;;;;;;11.43;5.50;;;;;;;28.70;51.76;101779.69;7407492;19;20018;-80
2022/08/02 12:05:52;;;;;;;12.57;5.65;;;;;;;28.66;52.48;101762.78;7403510;19;20018;-81
2022/08/02 12:08:34;;;;;;;;;;;;;;;28.95;51.13;101762.28;7403413;19;20038;-82
2022/08/02 12:11:08;;;;;;;14.43;6.03;;;;;;;28.82;50.92;101774.63;7394398;19;19929;-82
2022/08/02 12:13:47;;;;;;;12.30;5.80;;;;;;;29.05;51.42;101765.41;7402682;19;20011;-78
2022/08/02 12:19:22;;;;;;;11.48;6.00;;;;;;;29.13;52.62;101748.78;7405043;19;20387;-79
2022/08/02 12:22:15;;;;;;;9.63;4.97;;;;;;;28.92;52.92;101748.94;7402853;19;20018;-83
2022/08/02 12:24:48;;;;;;;8.30;4.13;;;;;;;29.01;52.24;101742.19;7399909;19;20398;-78
2022/08/02 12:27:43;;;;;;;13.90;5.47;;;;;;;29.16;51.30;101754.03;7393574;19;20026;-80